sensor_id;sensor_type;location;lat;lon;timestamp;pressure;altitude;pressure_sealevel;temperature;humidity
72110;BME280;59983;52.010;5.420;2023-11-18T00:01:57;102293.97;;;18.74;80.30
72110;BME280;59983;52.010;5.420;2023-11-18T00:04:24;102295.09;;;18.73;80.18
72110;BME280;59983;52.010;5.420;2023-11-18T00:06:51;102298.69;;;18.73;80.23
72110;BME280;59983;52.010;5.420;2023-11-18T00:09:18;102306.09;;;18.73;80.26
72110;BME280;59983;52.010;5.420;2023-11-18T00:11:46;102302.13;;;18.70;80.18
72110;BME280;59983;52.010;5.420;2023-11-18T00:14:12;102300.19;;;18.71;80.02
72110;BME280;59983;52.010;5.420;2023-11-18T00:16:40;102296.22;;;18.68;80.02
72110;BME280;59983;52.010;5.420;2023-11-18T00:19:06;102298.59;;;18.70;79.99
72110;BME280;59983;52.010;5.420;2023-11-18T00:21:35;102294.63;;;18.67;80.17
72110;BME280;59983;52.010;5.420;2023-11-18T00:24:03;102288.34;;;18.66;80.12
72110;BME280;59983;52.010;5.420;2023-11-18T00:26:30;102286.75;;;18.65;80.08
72110;BME280;59983;52.010;5.420;2023-11-18T00:28:57;102292.25;;;18.65;80.06
72110;BME280;59983;52.010;5.420;2023-11-18T00:31:23;102291.75;;;18.63;80.11
72110;BME280;59983;52.010;5.420;2023-11-18T00:33:51;102280.78;;;18.63;80.09
72110;BME280;59983;52.010;5.420;2023-11-18T00:36:18;102284.69;;;18.62;80.05
72110;BME280;59983;52.010;5.420;2023-11-18T00:38:45;102277.59;;;18.61;80.02
72110;BME280;59983;52.010;5.420;2023-11-18T00:41:12;102272.47;;;18.60;79.98
72110;BME280;59983;52.010;5.420;2023-11-18T00:43:39;102274.44;;;18.59;79.92
72110;BME280;59983;52.010;5.420;2023-11-18T00:46:05;102277.97;;;18.60;80.03
72110;BME280;59983;52.010;5.420;2023-11-18T00:48:32;102276.38;;;18.59;80.06
72110;BME280;59983;52.010;5.420;2023-11-18T00:50:59;102270.47;;;18.57;79.93
72110;BME280;59983;52.010;5.420;2023-11-18T00:53:25;102286.16;;;18.56;80.01
72110;BME280;59983;52.010;5.420;2023-11-18T00:55:52;102287.75;;;18.57;79.96
72110;BME280;59983;52.010;5.420;2023-11-18T00:58:18;102290.88;;;18.56;79.95
72110;BME280;59983;52.010;5.420;2023-11-18T01:00:45;102303.81;;;18.55;80.02
72110;BME280;59983;52.010;5.420;2023-11-18T01:03:11;102304.16;;;18.54;79.87
72110;BME280;59983;52.010;5.420;2023-11-18T01:05:38;102313.19;;;18.54;79.88
72110;BME280;59983;52.010;5.420;2023-11-18T01:08:05;102309.66;;;18.54;80.06
72110;BME280;59983;52.010;5.420;2023-11-18T01:10:32;102308.06;;;18.53;79.91
72110;BME280;59983;52.010;5.420;2023-11-18T01:12:58;102307.28;;;18.52;79.81
72110;BME280;59983;52.010;5.420;2023-11-18T01:15:25;102307.63;;;18.51;79.70
72110;BME280;59983;52.010;5.420;2023-11-18T01:17:51;102306.06;;;18.50;79.84
72110;BME280;59983;52.010;5.420;2023-11-18T01:20:18;102301.72;;;18.49;79.80
72110;BME280;59983;52.010;5.420;2023-11-18T01:22:48;102309.16;;;18.48;79.79
72110;BME280;59983;52.010;5.420;2023-11-18T01:25:15;102310.31;;;18.47;79.82
72110;BME280;59983;52.010;5.420;2023-11-18T01:27:44;102302.88;;;18.48;79.75
72110;BME280;59983;52.010;5.420;2023-11-18T01:30:14;102296.13;;;18.45;79.87
72110;BME280;59983;52.010;5.420;2023-11-18T01:32:41;102304.03;;;18.47;79.83
72110;BME280;59983;52.010;5.420;2023-11-18T01:35:09;102298.09;;;18.45;79.70
72110;BME280;59983;52.010;5.420;2023-11-18T01:37:38;102303.16;;;18.43;79.80
72110;BME280;59983;52.010;5.420;2023-11-18T01:40:05;102306.69;;;18.43;80.13
72110;BME280;59983;52.010;5.420;2023-11-18T01:42:34;102297.66;;;18.43;79.93
72110;BME280;59983;52.010;5.420;2023-11-18T01:45:01;102305.91;;;18.43;79.90
72110;BME280;59983;52.010;5.420;2023-11-18T01:47:32;102298.03;;;18.41;79.61
72110;BME280;59983;52.010;5.420;2023-11-18T01:50:00;102305.47;;;18.40;79.87
72110;BME280;59983;52.010;5.420;2023-11-18T01:52:27;102299.56;;;18.38;79.91
72110;BME280;59983;52.010;5.420;2023-11-18T01:54:56;102300.34;;;18.39;79.77
72110;BME280;59983;52.010;5.420;2023-11-18T01:57:23;102290.53;;;18.38;79.91
72110;BME280;59983;52.010;5.420;2023-11-18T01:59:53;102292.81;;;18.36;79.80
72110;BME280;59983;52.010;5.420;2023-11-18T02:02:20;102292.81;;;18.36;79.93
72110;BME280;59983;52.010;5.420;2023-11-18T02:04:48;102296.72;;;18.35;79.96
72110;BME280;59983;52.010;5.420;2023-11-18T02:07:16;102298.31;;;18.36;79.82
72110;BME280;59983;52.010;5.420;2023-11-18T02:09:44;102291.59;;;18.33;79.75
72110;BME280;59983;52.010;5.420;2023-11-18T02:12:33;102301.00;;;18.32;79.94
72110;BME280;59983;52.010;5.420;2023-11-18T02:15:07;102307.28;;;18.33;79.82
72110;BME280;59983;52.010;5.420;2023-11-18T02:17:41;102297.81;;;18.30;79.81
72110;BME280;59983;52.010;5.420;2023-11-18T02:20:10;102307.66;;;18.31;79.83
72110;BME280;59983;52.010;5.420;2023-11-18T02:22:43;102303.31;;;18.30;79.80
72110;BME280;59983;52.010;5.420;2023-11-18T02:25:09;102304.47;;;18.29;79.87
72110;BME280;59983;52.010;5.420;2023-11-18T02:27:38;102311.94;;;18.29;79.88
72110;BME280;59983;52.010;5.420;2023-11-18T02:30:05;102314.69;;;18.29;79.85
72110;BME280;59983;52.010;5.420;2023-11-18T02:32:37;102313.06;;;18.28;79.71
72110;BME280;59983;52.010;5.420;2023-11-18T02:35:23;102310.69;;;18.26;79.96
72110;BME280;59983;52.010;5.420;2023-11-18T02:37:54;102311.47;;;18.27;79.85
72110;BME280;59983;52.010;5.420;2023-11-18T02:40:41;102309.88;;;18.26;79.99
72110;BME280;59983;52.010;5.420;2023-11-18T02:43:10;102305.91;;;18.23;79.85
72110;BME280;59983;52.010;5.420;2023-11-18T02:45:37;102296.50;;;18.24;80.03
72110;BME280;59983;52.010;5.420;2023-11-18T02:48:05;102297.69;;;18.23;79.95
72110;BME280;59983;52.010;5.420;2023-11-18T02:50:33;102300.44;;;18.23;79.78
72110;BME280;59983;52.010;5.420;2023-11-18T02:53:02;102285.09;;;18.22;79.90
72110;BME280;59983;52.010;5.420;2023-11-18T02:55:29;102277.22;;;18.21;79.96
72110;BME280;59983;52.010;5.420;2023-11-18T02:57:56;102274.47;;;18.21;79.88
72110;BME280;59983;52.010;5.420;2023-11-18T03:00:23;102266.25;;;18.21;79.90
72110;BME280;59983;52.010;5.420;2023-11-18T03:02:51;102261.88;;;18.20;80.10
72110;BME280;59983;52.010;5.420;2023-11-18T03:05:19;102259.50;;;18.18;79.81
72110;BME280;59983;52.010;5.420;2023-11-18T03:07:47;102256.75;;;18.18;79.84
72110;BME280;59983;52.010;5.420;2023-11-18T03:10:20;102258.72;;;18.18;79.96
72110;BME280;59983;52.010;5.420;2023-11-18T03:12:51;102261.44;;;18.18;79.91
72110;BME280;59983;52.010;5.420;2023-11-18T03:15:20;102250.84;;;18.16;79.90
72110;BME280;59983;52.010;5.420;2023-11-18T03:17:49;102259.88;;;18.17;79.77
72110;BME280;59983;52.010;5.420;2023-11-18T03:20:17;102257.50;;;18.15;79.87
72110;BME280;59983;52.010;5.420;2023-11-18T03:22:47;102259.44;;;18.15;79.77
72110;BME280;59983;52.010;5.420;2023-11-18T03:25:14;102255.53;;;18.16;79.80
72110;BME280;59983;52.010;5.420;2023-11-18T03:27:41;102257.50;;;18.15;79.88
72110;BME280;59983;52.010;5.420;2023-11-18T03:30:08;102255.91;;;18.14;79.87
72110;BME280;59983;52.010;5.420;2023-11-18T03:32:36;102256.28;;;18.13;79.68
72110;BME280;59983;52.010;5.420;2023-11-18T03:35:04;102253.53;;;18.13;79.74
72110;BME280;59983;52.010;5.420;2023-11-18T03:37:36;102260.97;;;18.12;79.73
72110;BME280;59983;52.010;5.420;2023-11-18T03:40:10;102246.00;;;18.09;79.89
72110;BME280;59983;52.010;5.420;2023-11-18T03:42:37;102244.81;;;18.10;79.67
72110;BME280;59983;52.010;5.420;2023-11-18T03:45:04;102241.28;;;18.10;79.78
72110;BME280;59983;52.010;5.420;2023-11-18T03:47:31;102231.47;;;18.09;80.00
72110;BME280;59983;52.010;5.420;2023-11-18T03:49:58;102214.19;;;18.08;79.89
72110;BME280;59983;52.010;5.420;2023-11-18T03:52:24;102213.41;;;18.08;79.89
72110;BME280;59983;52.010;5.420;2023-11-18T03:54:52;102201.25;;;18.09;79.87
72110;BME280;59983;52.010;5.420;2023-11-18T03:57:18;102198.88;;;18.07;79.85
72110;BME280;59983;52.010;5.420;2023-11-18T03:59:45;102190.63;;;18.07;79.89
72110;BME280;59983;52.010;5.420;2023-11-18T04:02:11;102185.53;;;18.06;79.80
72110;BME280;59983;52.010;5.420;2023-11-18T04:04:38;102189.44;;;18.05;79.81
72110;BME280;59983;52.010;5.420;2023-11-18T04:07:05;102187.47;;;18.05;79.82
72110;BME280;59983;52.010;5.420;2023-11-18T04:09:33;102180.75;;;18.03;80.00
72110;BME280;59983;52.010;5.420;2023-11-18T04:11:59;102177.66;;;18.04;79.64
72110;BME280;59983;52.010;5.420;2023-11-18T04:14:26;102173.31;;;18.03;79.78
72110;BME280;59983;52.010;5.420;2023-11-18T04:16:53;102173.31;;;18.03;79.78
72110;BME280;59983;52.010;5.420;2023-11-18T04:19:21;102185.47;;;18.02;79.93
72110;BME280;59983;52.010;5.420;2023-11-18T04:21:47;102183.50;;;18.03;79.97
72110;BME280;59983;52.010;5.420;2023-11-18T04:24:15;102179.16;;;18.02;79.98
72110;BME280;59983;52.010;5.420;2023-11-18T04:26:42;102175.59;;;18.01;79.75
72110;BME280;59983;52.010;5.420;2023-11-18T04:29:08;102172.44;;;17.99;79.97
72110;BME280;59983;52.010;5.420;2023-11-18T04:31:35;102165.78;;;18.00;79.85
72110;BME280;59983;52.010;5.420;2023-11-18T04:34:03;102152.78;;;17.97;79.81
72110;BME280;59983;52.010;5.420;2023-11-18T04:36:33;102148.09;;;17.98;79.93
72110;BME280;59983;52.010;5.420;2023-11-18T04:38:59;102135.53;;;17.97;79.78
72110;BME280;59983;52.010;5.420;2023-11-18T04:41:26;102130.03;;;17.97;79.76
72110;BME280;59983;52.010;5.420;2023-11-18T04:43:52;102137.47;;;17.96;79.72
72110;BME280;59983;52.010;5.420;2023-11-18T04:46:19;102133.94;;;17.96;79.69
72110;BME280;59983;52.010;5.420;2023-11-18T04:48:46;102128.03;;;17.94;80.00
72110;BME280;59983;52.010;5.420;2023-11-18T04:51:13;102118.63;;;17.95;79.76
72110;BME280;59983;52.010;5.420;2023-11-18T04:53:40;102123.34;;;17.94;79.73
72110;BME280;59983;52.010;5.420;2023-11-18T04:56:07;102124.47;;;17.93;79.65
72110;BME280;59983;52.010;5.420;2023-11-18T04:58:39;102129.97;;;17.93;79.82
72110;BME280;59983;52.010;5.420;2023-11-18T05:01:06;102131.91;;;17.93;79.94
72110;BME280;59983;52.010;5.420;2023-11-18T05:03:33;102134.66;;;17.93;79.95
72110;BME280;59983;52.010;5.420;2023-11-18T05:06:00;102136.59;;;17.92;79.76
72110;BME280;59983;52.010;5.420;2023-11-18T05:08:27;102129.53;;;17.91;79.69
72110;BME280;59983;52.010;5.420;2023-11-18T05:10:54;102128.31;;;17.89;79.73
72110;BME280;59983;52.010;5.420;2023-11-18T05:13:21;102126.38;;;17.89;79.84
72110;BME280;59983;52.010;5.420;2023-11-18T05:15:48;102138.50;;;17.88;79.93
72110;BME280;59983;52.010;5.420;2023-11-18T05:18:16;102126.38;;;17.89;79.80
72110;BME280;59983;52.010;5.420;2023-11-18T05:20:44;102126.72;;;17.88;79.82
72110;BME280;59983;52.010;5.420;2023-11-18T05:23:11;102115.75;;;17.88;79.68
72110;BME280;59983;52.010;5.420;2023-11-18T05:25:42;102119.22;;;17.85;80.04
72110;BME280;59983;52.010;5.420;2023-11-18T05:28:12;102111.78;;;17.85;79.73
72110;BME280;59983;52.010;5.420;2023-11-18T05:30:41;102106.63;;;17.83;79.83
72110;BME280;59983;52.010;5.420;2023-11-18T05:33:11;102108.25;;;17.85;80.07
72110;BME280;59983;52.010;5.420;2023-11-18T05:35:44;102104.69;;;17.84;79.78
72110;BME280;59983;52.010;5.420;2023-11-18T05:38:18;102107.44;;;17.84;79.83
72110;BME280;59983;52.010;5.420;2023-11-18T05:40:48;102114.88;;;17.83;79.88
72110;BME280;59983;52.010;5.420;2023-11-18T05:43:24;102112.50;;;17.82;79.85
72110;BME280;59983;52.010;5.420;2023-11-18T05:45:52;102105.06;;;17.82;79.80
72110;BME280;59983;52.010;5.420;2023-11-18T05:48:44;102097.19;;;17.81;79.90
72110;BME280;59983;52.010;5.420;2023-11-18T05:51:11;102090.13;;;17.80;79.99
72110;BME280;59983;52.010;5.420;2023-11-18T05:53:42;102088.97;;;17.81;79.74
72110;BME280;59983;52.010;5.420;2023-11-18T05:56:12;102088.16;;;17.80;79.70
72110;BME280;59983;52.010;5.420;2023-11-18T05:58:39;102083.03;;;17.79;79.66
72110;BME280;59983;52.010;5.420;2023-11-18T06:01:06;102083.03;;;17.79;79.80
72110;BME280;59983;52.010;5.420;2023-11-18T06:03:38;102085.00;;;17.78;79.86
72110;BME280;59983;52.010;5.420;2023-11-18T06:06:07;102077.13;;;17.77;79.90
72110;BME280;59983;52.010;5.420;2023-11-18T06:08:37;102074.38;;;17.77;79.76
72110;BME280;59983;52.010;5.420;2023-11-18T06:11:12;102069.22;;;17.75;79.64
72110;BME280;59983;52.010;5.420;2023-11-18T06:13:46;102071.19;;;17.75;80.07
72110;BME280;59983;52.010;5.420;2023-11-18T06:16:14;102067.66;;;17.74;79.87
72110;BME280;59983;52.010;5.420;2023-11-18T06:18:44;102072.34;;;17.74;79.73
72110;BME280;59983;52.010;5.420;2023-11-18T06:21:15;102073.94;;;17.75;79.90
72110;BME280;59983;52.010;5.420;2023-11-18T06:23:42;102069.59;;;17.74;79.74
72110;BME280;59983;52.010;5.420;2023-11-18T06:26:09;102070.75;;;17.73;79.84
72110;BME280;59983;52.010;5.420;2023-11-18T06:28:47;102068.03;;;17.73;80.02
72110;BME280;59983;52.010;5.420;2023-11-18T06:31:15;102050.34;;;17.70;79.87
72110;BME280;59983;52.010;5.420;2023-11-18T06:33:43;102057.41;;;17.71;79.81
72110;BME280;59983;52.010;5.420;2023-11-18T06:38:40;102051.13;;;17.71;79.75
72110;BME280;59983;52.010;5.420;2023-11-18T06:41:07;102063.59;;;17.68;80.02
72110;BME280;59983;52.010;5.420;2023-11-18T06:43:44;102060.84;;;17.68;79.92
72110;BME280;59983;52.010;5.420;2023-11-18T06:46:31;102067.13;;;17.69;79.86
72110;BME280;59983;52.010;5.420;2023-11-18T06:49:01;102068.31;;;17.68;79.75
72110;BME280;59983;52.010;5.420;2023-11-18T06:51:34;102065.91;;;17.66;79.87
72110;BME280;59983;52.010;5.420;2023-11-18T06:54:06;102057.66;;;17.66;79.87
72110;BME280;59983;52.010;5.420;2023-11-18T06:56:38;102063.94;;;17.67;80.00
72110;BME280;59983;52.010;5.420;2023-11-18T06:59:06;102054.13;;;17.66;79.89
72110;BME280;59983;52.010;5.420;2023-11-18T07:01:40;102070.59;;;17.66;79.91
72110;BME280;59983;52.010;5.420;2023-11-18T07:04:07;102061.16;;;17.63;79.86
72110;BME280;59983;52.010;5.420;2023-11-18T07:06:37;102061.94;;;17.64;79.94
72110;BME280;59983;52.010;5.420;2023-11-18T07:09:09;102057.97;;;17.61;79.87
72110;BME280;59983;52.010;5.420;2023-11-18T07:11:47;102054.88;;;17.63;79.93
72110;BME280;59983;52.010;5.420;2023-11-18T07:14:15;102048.59;;;17.62;79.84
72110;BME280;59983;52.010;5.420;2023-11-18T07:16:42;102054.06;;;17.62;79.87
72110;BME280;59983;52.010;5.420;2023-11-18T07:19:10;102047.78;;;17.62;79.93
72110;BME280;59983;52.010;5.420;2023-11-18T07:21:44;102057.97;;;17.61;79.75
72110;BME280;59983;52.010;5.420;2023-11-18T07:24:10;102056.41;;;17.60;79.84
72110;BME280;59983;52.010;5.420;2023-11-18T07:26:37;102060.28;;;17.59;79.83
72110;BME280;59983;52.010;5.420;2023-11-18T07:29:04;102063.03;;;17.59;79.88
72110;BME280;59983;52.010;5.420;2023-11-18T07:31:34;102068.53;;;17.59;79.75
72110;BME280;59983;52.010;5.420;2023-11-18T07:34:05;102074.00;;;17.59;79.89
72110;BME280;59983;52.010;5.420;2023-11-18T07:36:32;102072.06;;;17.60;79.86
72110;BME280;59983;52.010;5.420;2023-11-18T07:38:59;102080.28;;;17.60;79.63
72110;BME280;59983;52.010;5.420;2023-11-18T07:41:33;102087.38;;;17.61;79.96
72110;BME280;59983;52.010;5.420;2023-11-18T07:44:00;102079.63;;;17.66;80.03
72110;BME280;59983;52.010;5.420;2023-11-18T07:46:27;102073.50;;;17.73;80.11
72110;BME280;59983;52.010;5.420;2023-11-18T07:48:57;102085.06;;;17.82;80.47
72110;BME280;59983;52.010;5.420;2023-11-18T07:51:24;102076.22;;;17.92;80.51
72110;BME280;59983;52.010;5.420;2023-11-18T07:53:51;102062.63;;;17.99;80.38
72110;BME280;59983;52.010;5.420;2023-11-18T07:56:19;102069.81;;;18.07;80.62
72110;BME280;59983;52.010;5.420;2023-11-18T07:58:49;102060.97;;;18.18;80.41
72110;BME280;59983;52.010;5.420;2023-11-18T08:01:17;102058.75;;;18.27;80.35
72110;BME280;59983;52.010;5.420;2023-11-18T08:03:44;102061.63;;;18.34;80.22
72110;BME280;59983;52.010;5.420;2023-11-18T08:06:11;102057.47;;;18.44;79.81
72110;BME280;59983;52.010;5.420;2023-11-18T08:08:39;102063.91;;;18.55;79.67
72110;BME280;59983;52.010;5.420;2023-11-18T08:11:09;102052.25;;;18.61;79.22
72110;BME280;59983;52.010;5.420;2023-11-18T08:13:36;102062.28;;;18.73;78.81
72110;BME280;59983;52.010;5.420;2023-11-18T08:16:03;102055.28;;;18.79;78.95
72110;BME280;59983;52.010;5.420;2023-11-18T08:18:30;102057.38;;;18.89;78.84
72110;BME280;59983;52.010;5.420;2023-11-18T08:20:58;102041.38;;;18.99;78.58
72110;BME280;59983;52.010;5.420;2023-11-18T08:23:27;102030.09;;;19.07;78.17
72110;BME280;59983;52.010;5.420;2023-11-18T08:25:58;102028.66;;;19.17;78.01
72110;BME280;59983;52.010;5.420;2023-11-18T08:28:25;102030.69;;;19.23;78.13
72110;BME280;59983;52.010;5.420;2023-11-18T08:30:52;102018.22;;;19.30;77.96
72110;BME280;59983;52.010;5.420;2023-11-18T08:33:21;102012.00;;;19.36;77.68
72110;BME280;59983;52.010;5.420;2023-11-18T08:35:50;101997.50;;;19.43;77.77
72110;BME280;59983;52.010;5.420;2023-11-18T08:38:17;101997.56;;;19.46;77.75
72110;BME280;59983;52.010;5.420;2023-11-18T08:40:44;101999.94;;;19.51;77.36
72110;BME280;59983;52.010;5.420;2023-11-18T08:43:12;102000.38;;;19.53;77.58
72110;BME280;59983;52.010;5.420;2023-11-18T08:45:38;101978.41;;;19.57;77.31
72110;BME280;59983;52.010;5.420;2023-11-18T08:48:05;101985.56;;;19.62;77.30
72110;BME280;59983;52.010;5.420;2023-11-18T08:50:36;101987.53;;;19.65;77.28
72110;BME280;59983;52.010;5.420;2023-11-18T08:53:03;101993.06;;;19.68;77.29
72110;BME280;59983;52.010;5.420;2023-11-18T08:55:32;101993.06;;;19.68;77.29
72110;BME280;59983;52.010;5.420;2023-11-18T08:58:09;101985.25;;;19.70;77.28
72110;BME280;59983;52.010;5.420;2023-11-18T09:00:50;101980.47;;;19.67;77.70
72110;BME280;59983;52.010;5.420;2023-11-18T09:03:30;101962.38;;;19.66;77.35
72110;BME280;59983;52.010;5.420;2023-11-18T09:06:06;101961.97;;;19.64;77.56
72110;BME280;59983;52.010;5.420;2023-11-18T09:08:45;101961.56;;;19.62;77.52
72110;BME280;59983;52.010;5.420;2023-11-18T09:11:14;101953.66;;;19.61;77.86
72110;BME280;59983;52.010;5.420;2023-11-18T09:13:42;101949.72;;;19.58;77.98
72110;BME280;59983;52.010;5.420;2023-11-18T09:16:11;101957.13;;;19.54;78.16
72110;BME280;59983;52.010;5.420;2023-11-18T09:18:43;101949.28;;;19.52;78.09
72110;BME280;59983;52.010;5.420;2023-11-18T09:21:13;101948.84;;;19.50;78.08
72110;BME280;59983;52.010;5.420;2023-11-18T09:23:45;101928.38;;;19.48;78.21
72110;BME280;59983;52.010;5.420;2023-11-18T09:26:14;101921.69;;;19.45;78.45
72110;BME280;59983;52.010;5.420;2023-11-18T09:28:42;101919.66;;;19.42;78.29
72110;BME280;59983;52.010;5.420;2023-11-18T09:31:08;101907.06;;;19.41;78.49
72110;BME280;59983;52.010;5.420;2023-11-18T09:33:40;101916.88;;;19.39;78.60
72110;BME280;59983;52.010;5.420;2023-11-18T09:36:11;101916.09;;;19.38;78.64
72110;BME280;59983;52.010;5.420;2023-11-18T09:38:40;101918.06;;;19.38;78.83
72110;BME280;59983;52.010;5.420;2023-11-18T09:41:10;101918.44;;;19.36;78.89
72110;BME280;59983;52.010;5.420;2023-11-18T09:43:43;101905.06;;;19.35;79.38
72110;BME280;59983;52.010;5.420;2023-11-18T09:46:22;101886.16;;;19.33;79.57
72110;BME280;59983;52.010;5.420;2023-11-18T09:48:52;101864.94;;;19.34;79.64
72110;BME280;59983;52.010;5.420;2023-11-18T09:51:24;101866.13;;;19.33;79.64
72110;BME280;59983;52.010;5.420;2023-11-18T09:53:52;101864.13;;;19.30;79.99
72110;BME280;59983;52.010;5.420;2023-11-18T09:59:18;101875.13;;;19.30;80.21
72110;BME280;59983;52.010;5.420;2023-11-18T10:01:53;101868.84;;;19.29;80.24
72110;BME280;59983;52.010;5.420;2023-11-18T10:04:24;101868.84;;;19.29;80.55
72110;BME280;59983;52.010;5.420;2023-11-18T10:06:54;101869.22;;;19.28;80.31
72110;BME280;59983;52.010;5.420;2023-11-18T10:09:23;101874.75;;;19.28;80.30
72110;BME280;59983;52.010;5.420;2023-11-18T10:12:04;101878.66;;;19.27;80.34
72110;BME280;59983;52.010;5.420;2023-11-18T10:14:34;101853.91;;;19.27;79.96
72110;BME280;59983;52.010;5.420;2023-11-18T10:17:05;101850.38;;;19.26;80.17
72110;BME280;59983;52.010;5.420;2023-11-18T10:19:54;101848.41;;;19.27;80.23
72110;BME280;59983;52.010;5.420;2023-11-18T10:22:26;101852.69;;;19.24;80.37
72110;BME280;59983;52.010;5.420;2023-11-18T10:24:53;101851.09;;;19.23;80.59
72110;BME280;59983;52.010;5.420;2023-11-18T10:27:29;101853.06;;;19.22;80.77
72110;BME280;59983;52.010;5.420;2023-11-18T10:29:57;101863.28;;;19.22;80.52
72110;BME280;59983;52.010;5.420;2023-11-18T10:32:24;101863.66;;;19.20;80.59
72110;BME280;59983;52.010;5.420;2023-11-18T10:34:58;101871.13;;;19.20;80.26
72110;BME280;59983;52.010;5.420;2023-11-18T10:37:25;101868.75;;;19.18;80.52
72110;BME280;59983;52.010;5.420;2023-11-18T10:39:52;101856.97;;;19.18;80.31
72110;BME280;59983;52.010;5.420;2023-11-18T10:42:19;101836.91;;;19.17;80.35
72110;BME280;59983;52.010;5.420;2023-11-18T10:44:59;101832.56;;;19.16;80.23
72110;BME280;59983;52.010;5.420;2023-11-18T10:47:26;101826.28;;;19.16;80.32
72110;BME280;59983;52.010;5.420;2023-11-18T10:49:56;101821.16;;;19.14;80.49
72110;BME280;59983;52.010;5.420;2023-11-18T10:52:24;101820.38;;;19.14;80.43
72110;BME280;59983;52.010;5.420;2023-11-18T10:54:53;101816.84;;;19.13;80.41
72110;BME280;59983;52.010;5.420;2023-11-18T10:57:23;101806.59;;;19.10;80.25
72110;BME280;59983;52.010;5.420;2023-11-18T11:00:06;101800.72;;;19.12;80.35
72110;BME280;59983;52.010;5.420;2023-11-18T11:02:45;101792.84;;;19.10;80.39
72110;BME280;59983;52.010;5.420;2023-11-18T11:05:29;101794.81;;;19.10;80.33
72110;BME280;59983;52.010;5.420;2023-11-18T11:08:00;101795.97;;;19.09;80.21
72110;BME280;59983;52.010;5.420;2023-11-18T11:10:29;101790.03;;;19.07;80.18
72110;BME280;59983;52.010;5.420;2023-11-18T11:13:00;101784.56;;;19.07;80.42
72110;BME280;59983;52.010;5.420;2023-11-18T11:15:32;101780.59;;;19.04;80.18
72110;BME280;59983;52.010;5.420;2023-11-18T11:18:20;101781.00;;;19.03;80.41
72110;BME280;59983;52.010;5.420;2023-11-18T11:21:01;101777.44;;;19.02;80.38
72110;BME280;59983;52.010;5.420;2023-11-18T11:27:09;101731.84;;;18.98;80.81
72110;BME280;59983;52.010;5.420;2023-11-18T11:29:24;101713.38;;;18.98;80.90
72110;BME280;59983;52.010;5.420;2023-11-18T11:34:54;101664.66;;;18.99;81.17
72110;BME280;59983;52.010;5.420;2023-11-18T11:37:25;101653.66;;;18.99;81.40
72110;BME280;59983;52.010;5.420;2023-11-18T11:39:56;101651.31;;;18.97;81.23
72110;BME280;59983;52.010;5.420;2023-11-18T11:42:26;101648.56;;;18.97;81.32
72110;BME280;59983;52.010;5.420;2023-11-18T11:44:53;101644.63;;;18.94;81.37
72110;BME280;59983;52.010;5.420;2023-11-18T11:47:22;101639.91;;;18.95;81.57
72110;BME280;59983;52.010;5.420;2023-11-18T11:50:03;101630.88;;;18.94;81.47
72110;BME280;59983;52.010;5.420;2023-11-18T11:52:41;101628.13;;;18.94;81.63
72110;BME280;59983;52.010;5.420;2023-11-18T11:55:19;101630.09;;;18.94;81.80
72110;BME280;59983;52.010;5.420;2023-11-18T11:57:51;101620.25;;;18.93;81.65
72110;BME280;59983;52.010;5.420;2023-11-18T12:00:22;101623.81;;;18.93;81.80
72110;BME280;59983;52.010;5.420;2023-11-18T12:02:53;101601.81;;;18.93;82.03
72110;BME280;59983;52.010;5.420;2023-11-18T12:05:26;101600.63;;;18.91;82.02
72110;BME280;59983;52.010;5.420;2023-11-18T12:07:54;101602.97;;;18.92;82.11
72110;BME280;59983;52.010;5.420;2023-11-18T12:10:30;101578.97;;;18.89;82.06
72110;BME280;59983;52.010;5.420;2023-11-18T12:13:08;101573.13;;;18.91;82.38
72110;BME280;59983;52.010;5.420;2023-11-18T12:15:55;101583.69;;;18.89;82.32
72110;BME280;59983;52.010;5.420;2023-11-18T12:18:30;101563.28;;;18.90;82.39
72110;BME280;59983;52.010;5.420;2023-11-18T12:21:00;101545.22;;;18.89;82.16
72110;BME280;59983;52.010;5.420;2023-11-18T12:23:31;101516.16;;;18.88;82.90
72110;BME280;59983;52.010;5.420;2023-11-18T12:26:01;101514.19;;;18.88;82.63
72110;BME280;59983;52.010;5.420;2023-11-18T12:28:33;101515.34;;;18.87;83.32
72110;BME280;59983;52.010;5.420;2023-11-18T12:31:04;101521.25;;;18.86;83.71
72110;BME280;59983;52.010;5.420;2023-11-18T12:37:12;101477.66;;;18.88;84.43
72110;BME280;59983;52.010;5.420;2023-11-18T12:43:07;101465.91;;;18.98;85.14
72110;BME280;59983;52.010;5.420;2023-11-18T12:48:34;101444.38;;;19.11;85.23
72110;BME280;59983;52.010;5.420;2023-11-18T12:51:03;101447.94;;;19.18;85.62
72110;BME280;59983;52.010;5.420;2023-11-18T12:53:36;101461.31;;;19.27;85.77
72110;BME280;59983;52.010;5.420;2023-11-18T12:56:03;101463.69;;;19.36;85.57
72110;BME280;59983;52.010;5.420;2023-11-18T12:58:30;101466.44;;;19.43;85.71
72110;BME280;59983;52.010;5.420;2023-11-18T13:01:00;101474.31;;;19.51;85.66
72110;BME280;59983;52.010;5.420;2023-11-18T13:03:26;101460.63;;;19.62;85.50
72110;BME280;59983;52.010;5.420;2023-11-18T13:05:53;101419.72;;;19.71;85.60
72110;BME280;59983;52.010;5.420;2023-11-18T13:08:20;101391.41;;;19.82;85.64
72110;BME280;59983;52.010;5.420;2023-11-18T13:10:49;101376.47;;;19.90;85.22
72110;BME280;59983;52.010;5.420;2023-11-18T13:13:16;101381.16;;;20.00;85.35
72110;BME280;59983;52.010;5.420;2023-11-18T13:15:46;101403.19;;;20.07;85.01
72110;BME280;59983;52.010;5.420;2023-11-18T13:18:14;101396.47;;;20.15;84.29
72110;BME280;59983;52.010;5.420;2023-11-18T13:20:41;101383.06;;;20.21;84.50
72110;BME280;59983;52.010;5.420;2023-11-18T13:23:19;101374.00;;;20.27;84.15
72110;BME280;59983;52.010;5.420;2023-11-18T13:25:47;101381.47;;;20.34;84.37